Time;durP1;ratioP1;P1;durP2;ratioP2;P2;SDS_P1;SDS_P2;PMS_P1;PMS_P2;Temp;Humidity;BMP_temperature;BMP_pressure;BME280_temperature;BME280_humidity;BME280_pressure;Samples;Min_cycle;Max_cycle;Signal;HPM_P1;HPM_P2
2022/12/24 00:00:28;;;;;;;17.85;5.10;;;12.50;99.90;;;;;;2075390;28;20029;-69
2022/12/24 00:01:29;;;;;;;24.10;4.82;;;12.50;99.90;;;;;;2073393;28;20025;-70
2022/12/24 00:02:29;;;;;;;22.83;6.10;;;12.50;99.90;;;;;;2072493;28;20052;-69
2022/12/24 00:03:30;;;;;;;19.85;5.07;;;12.50;99.90;;;;;;2076365;28;20655;-69
2022/12/24 00:04:30;;;;;;;22.67;4.82;;;12.40;99.90;;;;;;2075813;28;20032;-69
2022/12/24 00:05:31;;;;;;;19.42;4.70;;;12.50;99.90;;;;;;2074399;28;20022;-69
2022/12/24 00:06:31;;;;;;;25.38;5.80;;;12.40;99.90;;;;;;2073358;28;20049;-69
2022/12/24 00:07:32;;;;;;;20.75;4.65;;;12.40;99.90;;;;;;2074447;28;20905;-69
2022/12/24 00:08:33;;;;;;;21.20;5.03;;;12.40;99.90;;;;;;2073636;28;20030;-69
2022/12/24 00:09:34;;;;;;;17.55;4.40;;;12.50;99.90;;;;;;2077022;28;20104;-69
2022/12/24 00:10:34;;;;;;;21.85;5.45;;;12.40;99.90;;;;;;2073145;28;20470;-69
2022/12/24 00:11:35;;;;;;;21.75;6.55;;;12.40;99.90;;;;;;2075303;28;20029;-70
2022/12/24 00:12:36;;;;;;;19.77;5.45;;;12.40;99.90;;;;;;2073833;28;20132;-69
2022/12/24 00:13:36;;;;;;;19.23;4.93;;;12.40;99.90;;;;;;2072936;28;20555;-70
2022/12/24 00:14:37;;;;;;;24.92;5.25;;;12.40;99.90;;;;;;2071652;28;20025;-69
2022/12/24 00:15:37;;;;;;;20.88;4.82;;;12.40;99.90;;;;;;2073958;28;20014;-69
2022/12/24 00:16:38;;;;;;;26.92;6.05;;;12.40;99.90;;;;;;2072292;28;20030;-69
2022/12/24 00:17:38;;;;;;;29.40;6.10;;;12.40;99.90;;;;;;2072680;28;21228;-69
2022/12/24 00:18:39;;;;;;;26.60;5.53;;;12.40;99.90;;;;;;2073946;28;20413;-69
2022/12/24 00:19:41;;;;;;;22.85;5.90;;;12.40;99.90;;;;;;2073619;28;20072;-69
2022/12/24 00:20:49;;;;;;;23.52;6.60;;;12.40;99.90;;;;;;2074555;28;20036;-69
2022/12/24 00:21:50;;;;;;;19.20;5.28;;;12.40;99.90;;;;;;2073546;28;20030;-69
2022/12/24 00:22:50;;;;;;;19.80;4.90;;;12.40;99.90;;;;;;2072244;28;20414;-69
2022/12/24 00:23:51;;;;;;;24.58;5.28;;;12.40;99.90;;;;;;2074019;28;20101;-69
2022/12/24 00:24:51;;;;;;;21.52;4.78;;;12.40;99.90;;;;;;2073103;28;20087;-69
2022/12/24 00:25:52;;;;;;;24.85;6.03;;;12.40;99.90;;;;;;2076089;28;20026;-69
2022/12/24 00:26:53;;;;;;;21.30;5.90;;;12.40;99.90;;;;;;2073194;28;20117;-69
2022/12/24 00:27:53;;;;;;;17.45;5.22;;;12.40;99.90;;;;;;2074019;28;20401;-69
2022/12/24 00:28:54;;;;;;;19.80;5.70;;;12.30;99.90;;;;;;2073398;28;20493;-69
2022/12/24 00:29:54;;;;;;;23.30;5.90;;;12.40;99.90;;;;;;2074958;28;20029;-69
2022/12/24 00:30:55;;;;;;;22.45;5.35;;;12.40;99.90;;;;;;2074230;28;20704;-69
2022/12/24 00:31:55;;;;;;;29.98;6.97;;;12.40;99.90;;;;;;2074567;28;20088;-69
2022/12/24 00:32:56;;;;;;;23.35;5.57;;;12.30;99.90;;;;;;2074075;28;20496;-69
2022/12/24 00:33:56;;;;;;;24.05;5.38;;;12.40;99.90;;;;;;2072367;28;20089;-69
2022/12/24 00:34:57;;;;;;;32.75;6.85;;;12.30;99.90;;;;;;2073582;28;20061;-69
2022/12/24 00:35:57;;;;;;;28.35;6.40;;;12.30;99.90;;;;;;2072056;28;20033;-69
2022/12/24 00:36:58;;;;;;;21.33;5.38;;;12.30;99.90;;;;;;2073246;28;20032;-69
2022/12/24 00:37:58;;;;;;;25.73;6.35;;;12.30;99.90;;;;;;2075048;28;20025;-69
2022/12/24 00:38:59;;;;;;;27.75;5.75;;;12.30;99.90;;;;;;2073647;28;20061;-69
2022/12/24 00:40:00;;;;;;;22.80;5.70;;;12.30;99.90;;;;;;2074368;28;20045;-69
2022/12/24 00:41:05;;;;;;;27.60;5.13;;;12.30;99.90;;;;;;2072422;28;20061;-69
2022/12/24 00:42:05;;;;;;;25.65;6.40;;;12.30;99.90;;;;;;2073906;28;20037;-69
2022/12/24 00:43:06;;;;;;;25.15;5.72;;;12.30;99.90;;;;;;2072480;28;20026;-69
2022/12/24 00:44:10;;;;;;;21.25;5.35;;;12.30;99.90;;;;;;2074907;28;20641;-69
2022/12/24 00:45:12;;;;;;;27.85;5.88;;;12.30;99.90;;;;;;2073126;28;20129;-69
2022/12/24 00:46:12;;;;;;;27.17;5.82;;;12.30;99.90;;;;;;2071678;28;20041;-69
2022/12/24 00:47:13;;;;;;;27.98;6.72;;;12.30;99.90;;;;;;2074791;28;20065;-69
2022/12/24 00:48:13;;;;;;;22.40;5.00;;;12.30;99.90;;;;;;2072213;28;20034;-69
2022/12/24 00:49:14;;;;;;;23.85;6.18;;;12.30;99.90;;;;;;2076145;28;20462;-69
2022/12/24 00:50:15;;;;;;;19.40;5.40;;;12.30;99.90;;;;;;2074863;28;20045;-69
2022/12/24 00:51:16;;;;;;;23.60;5.80;;;12.30;99.90;;;;;;2071678;28;20030;-69
2022/12/24 00:52:16;;;;;;;25.90;5.20;;;12.30;99.90;;;;;;2072694;28;20468;-69
2022/12/24 00:53:17;;;;;;;29.40;6.90;;;12.30;99.90;;;;;;2074056;28;20131;-69
2022/12/24 00:54:18;;;;;;;20.75;5.45;;;12.30;99.90;;;;;;2073058;28;20076;-69
2022/12/24 00:55:18;;;;;;;27.05;6.30;;;12.40;99.90;;;;;;2071410;28;20022;-69
2022/12/24 00:56:19;;;;;;;26.40;6.32;;;12.30;99.90;;;;;;2073677;28;20025;-69
2022/12/24 00:57:20;;;;;;;26.27;6.03;;;12.30;99.90;;;;;;2075252;28;20030;-70
2022/12/24 00:58:20;;;;;;;26.70;5.38;;;12.30;99.90;;;;;;2074210;28;20029;-69
2022/12/24 00:59:21;;;;;;;36.13;7.40;;;12.30;99.90;;;;;;2071262;28;20141;-69
2022/12/24 01:00:21;;;;;;;29.83;6.18;;;12.30;99.90;;;;;;2074023;28;20029;-69
2022/12/24 01:01:23;;;;;;;25.75;5.45;;;12.30;99.90;;;;;;2073980;28;20708;-69
2022/12/24 01:02:24;;;;;;;21.83;5.85;;;12.30;99.90;;;;;;2073800;28;20112;-69
2022/12/24 01:03:36;;;;;;;24.35;6.10;;;12.30;99.90;;;;;;2074633;28;20022;-69
2022/12/24 01:05:56;;;;;;;24.45;6.28;;;12.30;99.90;;;;;;2074134;28;20030;-69
2022/12/24 01:06:57;;;;;;;21.42;5.32;;;12.30;99.90;;;;;;2073707;28;20092;-69
2022/12/24 01:07:57;;;;;;;24.77;5.78;;;12.30;99.90;;;;;;2073590;28;20030;-69
2022/12/24 01:08:58;;;;;;;22.80;5.72;;;12.30;99.90;;;;;;2073838;28;20028;-69
2022/12/24 01:09:58;;;;;;;21.35;6.25;;;12.30;99.90;;;;;;2073881;28;20034;-69
2022/12/24 01:11:00;;;;;;;26.67;5.25;;;12.30;99.90;;;;;;2071953;28;20017;-69
2022/12/24 01:12:00;;;;;;;25.67;5.38;;;12.30;99.90;;;;;;2071334;28;20034;-69
2022/12/24 01:13:01;;;;;;;22.15;5.25;;;12.30;99.90;;;;;;2073385;28;20056;-69
2022/12/24 01:14:02;;;;;;;29.15;5.32;;;12.30;99.90;;;;;;2074721;28;20030;-69
2022/12/24 01:15:04;;;;;;;29.00;5.53;;;12.30;99.90;;;;;;2071689;28;20087;-69
2022/12/24 01:16:16;;;;;;;23.15;5.28;;;12.30;99.90;;;;;;2071867;28;20083;-69
2022/12/24 01:17:17;;;;;;;25.77;6.18;;;12.30;99.90;;;;;;2074781;28;20456;-69
2022/12/24 01:18:17;;;;;;;25.88;5.95;;;12.30;99.90;;;;;;2074086;28;20025;-69
2022/12/24 01:19:18;;;;;;;25.25;5.80;;;12.30;99.90;;;;;;2072853;28;20030;-69
2022/12/24 01:20:19;;;;;;;24.73;5.97;;;12.30;99.90;;;;;;2073306;28;20462;-69
2022/12/24 01:21:19;;;;;;;29.35;6.65;;;12.30;99.90;;;;;;2074416;28;20120;-69
2022/12/24 01:22:20;;;;;;;27.23;5.97;;;12.30;99.90;;;;;;2073376;28;20489;-69
2022/12/24 01:23:20;;;;;;;22.70;5.68;;;12.30;99.90;;;;;;2074102;28;20037;-69
2022/12/24 01:24:21;;;;;;;21.65;5.35;;;12.20;99.90;;;;;;2073933;28;20552;-69
2022/12/24 01:25:21;;;;;;;26.95;5.88;;;12.30;99.90;;;;;;2071431;28;20033;-69
2022/12/24 01:26:22;;;;;;;20.02;5.32;;;12.30;99.90;;;;;;2072747;28;20580;-69
2022/12/24 01:27:22;;;;;;;25.05;6.05;;;12.30;99.90;;;;;;2074278;28;20369;-69
2022/12/24 01:28:23;;;;;;;24.13;6.97;;;12.20;99.90;;;;;;2073665;28;20038;-70
2022/12/24 01:29:23;;;;;;;28.50;6.90;;;12.30;99.90;;;;;;2072328;28;20025;-69
2022/12/24 01:30:24;;;;;;;22.05;5.40;;;12.30;99.90;;;;;;2074085;28;20025;-69
2022/12/24 01:31:25;;;;;;;29.83;6.38;;;12.30;99.90;;;;;;2072738;28;20581;-69
2022/12/24 01:32:25;;;;;;;27.27;6.53;;;12.30;99.90;;;;;;2074430;28;20375;-69
2022/12/24 01:33:29;;;;;;;27.85;7.13;;;12.30;99.90;;;;;;2074255;28;20131;-69
2022/12/24 01:34:30;;;;;;;27.33;6.55;;;12.30;99.90;;;;;;2073929;28;20041;-69
2022/12/24 01:35:30;;;;;;;25.40;5.50;;;12.20;99.90;;;;;;2072741;28;20835;-69
2022/12/24 01:36:31;;;;;;;26.33;5.82;;;12.30;99.90;;;;;;2074117;28;20738;-69
2022/12/24 01:37:31;;;;;;;28.40;6.75;;;12.30;99.90;;;;;;2072647;28;20050;-69
2022/12/24 01:38:32;;;;;;;27.90;5.53;;;12.30;99.90;;;;;;2074309;28;20107;-69
2022/12/24 01:39:32;;;;;;;25.52;6.45;;;12.30;99.90;;;;;;2072742;28;20083;-69
2022/12/24 01:43:23;;;;;;;21.52;5.35;;;12.30;99.90;;;;;;2072907;28;20445;-69
2022/12/24 01:44:26;;;;;;;30.60;6.65;;;12.20;99.90;;;;;;2075340;28;20038;-69
2022/12/24 01:45:41;;;;;;;36.88;6.63;;;12.20;99.90;;;;;;2073590;28;20037;-69
2022/12/24 01:46:42;;;;;;;35.92;7.10;;;12.20;99.90;;;;;;2071974;28;20033;-69
2022/12/24 01:47:43;;;;;;;29.98;6.22;;;12.20;99.90;;;;;;2072917;28;20028;-69
2022/12/24 01:48:51;;;;;;;29.80;6.40;;;12.20;99.90;;;;;;2073905;28;20047;-69
2022/12/24 01:50:14;;;;;;;29.23;6.28;;;12.20;99.90;;;;;;2073003;28;20080;-69
2022/12/24 01:51:25;;;;;;;31.13;6.22;;;12.20;99.90;;;;;;2075678;28;20385;-69
2022/12/24 01:52:29;;;;;;;35.00;7.35;;;12.20;99.90;;;;;;2072363;28;20022;-69
2022/12/24 01:53:33;;;;;;;23.98;5.80;;;12.10;99.90;;;;;;2073354;28;20025;-69
2022/12/24 01:54:43;;;;;;;31.80;7.18;;;12.10;99.90;;;;;;2073035;28;20041;-69
2022/12/24 01:55:45;;;;;;;31.17;7.32;;;12.10;99.90;;;;;;2072517;28;20029;-69
2022/12/24 01:56:53;;;;;;;34.15;7.07;;;12.10;99.90;;;;;;2073656;28;20721;-69
2022/12/24 01:57:56;;;;;;;31.92;6.53;;;12.10;99.90;;;;;;2073527;28;20089;-69
2022/12/24 01:59:03;;;;;;;26.55;6.30;;;12.10;99.90;;;;;;2074692;28;20057;-69
2022/12/24 02:00:09;;;;;;;27.95;6.15;;;12.10;99.90;;;;;;2072583;28;20041;-69
2022/12/24 02:01:10;;;;;;;32.50;7.75;;;12.10;99.90;;;;;;2073659;28;20030;-70
2022/12/24 02:02:11;;;;;;;32.55;7.65;;;12.10;99.90;;;;;;2071184;28;20030;-70
2022/12/24 02:03:12;;;;;;;31.77;7.00;;;12.10;99.90;;;;;;2073898;28;20053;-70
2022/12/24 02:04:25;;;;;;;29.33;7.10;;;12.10;99.90;;;;;;2073923;28;20540;-70
2022/12/24 02:05:33;;;;;;;30.15;6.22;;;12.10;99.90;;;;;;2072124;28;20049;-70
2022/12/24 02:06:34;;;;;;;28.02;5.78;;;12.10;99.90;;;;;;2072905;28;20466;-70
2022/12/24 02:07:35;;;;;;;33.00;7.40;;;12.10;99.90;;;;;;2073400;28;20025;-70
2022/12/24 02:08:38;;;;;;;27.20;6.47;;;12.20;99.90;;;;;;2074487;28;20029;-70
2022/12/24 02:09:39;;;;;;;27.23;6.55;;;12.10;99.90;;;;;;2074466;28;20033;-70
2022/12/24 02:10:40;;;;;;;32.22;7.38;;;12.10;99.90;;;;;;2072017;28;20030;-70
2022/12/24 02:11:43;;;;;;;25.08;5.95;;;12.10;99.90;;;;;;2073398;28;20500;-70
2022/12/24 02:12:45;;;;;;;25.15;5.82;;;12.10;99.90;;;;;;2072908;28;20409;-70
2022/12/24 02:13:53;;;;;;;28.60;5.97;;;12.10;99.90;;;;;;2072577;28;20034;-70
2022/12/24 02:14:54;;;;;;;26.67;6.25;;;12.10;99.90;;;;;;2072672;28;20121;-70
2022/12/24 02:16:05;;;;;;;21.75;5.97;;;12.10;99.90;;;;;;2074752;28;20658;-70
2022/12/24 02:17:09;;;;;;;26.42;7.10;;;12.10;99.90;;;;;;2071692;28;20026;-70
2022/12/24 02:18:45;;;;;;;30.42;6.78;;;12.10;99.90;;;;;;2074009;28;20029;-70
2022/12/24 02:20:01;;;;;;;31.05;6.90;;;12.10;99.90;;;;;;2074573;28;20033;-70
2022/12/24 02:21:38;;;;;;;28.90;6.95;;;12.10;99.90;;;;;;2071593;28;20040;-70
2022/12/24 02:22:50;;;;;;;23.52;6.10;;;12.00;99.90;;;;;;2073265;28;20132;-70
2022/12/24 02:24:31;;;;;;;30.45;6.03;;;12.00;99.90;;;;;;2071668;28;20018;-70
2022/12/24 02:25:51;;;;;;;26.17;7.18;;;12.00;99.90;;;;;;2072382;28;20084;-70
2022/12/24 02:27:05;;;;;;;27.30;6.22;;;12.00;99.90;;;;;;2072999;28;20398;-70
2022/12/24 02:28:35;;;;;;;29.83;6.43;;;12.00;99.90;;;;;;2072589;28;20519;-70
2022/12/24 02:30:13;;;;;;;28.10;7.53;;;12.00;99.90;;;;;;2072949;28;20022;-70
2022/12/24 02:31:22;;;;;;;29.42;7.28;;;11.90;99.90;;;;;;2073232;28;20482;-70
2022/12/24 02:32:53;;;;;;;30.63;6.38;;;11.90;99.90;;;;;;2074186;28;20034;-70
2022/12/24 02:34:03;;;;;;;33.38;8.43;;;11.90;99.90;;;;;;2076740;28;20029;-70
2022/12/24 02:35:34;;;;;;;31.67;6.97;;;11.90;99.90;;;;;;2076186;28;20692;-70
2022/12/24 02:36:42;;;;;;;28.45;6.80;;;11.90;99.90;;;;;;2074652;28;20261;-70
2022/12/24 02:37:57;;;;;;;24.13;6.70;;;11.90;99.90;;;;;;2074804;28;20021;-70
2022/12/24 02:39:05;;;;;;;27.65;6.28;;;11.90;99.90;;;;;;2074869;28;20025;-70
2022/12/24 02:40:08;;;;;;;30.60;7.20;;;11.90;99.90;;;;;;2072315;28;20743;-70
2022/12/24 02:41:24;;;;;;;29.17;6.53;;;11.90;99.90;;;;;;2073134;28;20525;-70
2022/12/24 02:42:30;;;;;;;31.02;8.45;;;11.90;99.90;;;;;;2075599;28;20018;-70
2022/12/24 02:43:37;;;;;;;36.13;7.18;;;11.90;99.90;;;;;;2074886;28;20033;-70
2022/12/24 02:44:52;;;;;;;29.35;6.20;;;11.90;99.90;;;;;;2075809;28;20112;-70
2022/12/24 02:45:58;;;;;;;25.25;6.80;;;11.90;99.90;;;;;;2072865;28;20026;-70
2022/12/24 02:47:01;;;;;;;31.52;6.32;;;11.90;99.90;;;;;;2074920;28;20029;-70
2022/12/24 02:48:02;;;;;;;30.40;6.90;;;11.90;99.90;;;;;;2074944;28;20021;-70
2022/12/24 02:49:03;;;;;;;28.33;6.43;;;11.90;99.90;;;;;;2074160;28;20511;-70
2022/12/24 02:50:07;;;;;;;30.95;6.75;;;11.90;99.90;;;;;;2075298;28;20030;-70
2022/12/24 02:51:09;;;;;;;29.27;6.70;;;11.90;99.90;;;;;;2072508;28;20030;-70
2022/12/24 02:52:34;;;;;;;28.48;6.18;;;11.90;99.90;;;;;;2074827;28;20025;-70
2022/12/24 02:53:35;;;;;;;30.88;7.22;;;11.90;99.90;;;;;;2075831;28;20128;-70
2022/12/24 02:54:36;;;;;;;26.00;6.47;;;11.90;99.90;;;;;;2073882;28;20454;-70
2022/12/24 02:55:51;;;;;;;34.42;6.70;;;11.90;99.90;;;;;;2075471;28;20064;-70
2022/12/24 02:57:33;;;;;;;30.48;6.63;;;11.90;99.90;;;;;;2074697;28;20034;-70
2022/12/24 02:58:55;;;;;;;27.35;6.00;;;11.80;99.90;;;;;;2058315;28;20116;-70
2022/12/24 03:00:04;;;;;;;33.25;7.20;;;11.80;99.90;;;;;;2058030;28;20093;-70
2022/12/24 03:01:25;;;;;;;31.13;6.93;;;11.80;99.90;;;;;;2070314;28;20122;-70
2022/12/24 03:02:54;;;;;;;28.88;6.85;;;11.80;99.90;;;;;;2074199;28;20045;-70
2022/12/24 03:03:57;;;;;;;30.73;7.55;;;11.80;99.90;;;;;;2075309;28;20029;-70
2022/12/24 03:05:07;;;;;;;30.00;6.82;;;11.80;99.90;;;;;;2074434;28;20112;-70
2022/12/24 03:06:07;;;;;;;26.20;7.03;;;11.70;99.90;;;;;;2075772;28;20886;-70
2022/12/24 03:07:34;;;;;;;29.52;6.65;;;11.80;99.90;;;;;;2071809;28;20461;-70
2022/12/24 03:08:59;;;;;;;28.98;6.70;;;11.80;99.90;;;;;;2073115;28;20034;-70
2022/12/24 03:10:30;;;;;;;27.20;6.65;;;11.70;99.90;;;;;;2074325;28;20029;-70
2022/12/24 03:11:32;;;;;;;31.50;7.40;;;11.70;99.90;;;;;;2075760;28;20037;-70
2022/12/24 03:12:38;;;;;;;30.65;7.30;;;11.70;99.90;;;;;;2070710;28;20041;-70
2022/12/24 03:13:41;;;;;;;35.10;7.28;;;11.70;99.90;;;;;;2076279;28;20018;-70
2022/12/24 03:14:42;;;;;;;24.17;6.47;;;11.70;99.90;;;;;;2073565;28;20014;-70
2022/12/24 03:15:44;;;;;;;30.45;6.13;;;11.70;99.90;;;;;;2074523;28;20033;-70
2022/12/24 03:16:46;;;;;;;32.97;8.93;;;11.80;99.90;;;;;;2073211;28;20061;-70
2022/12/24 03:17:49;;;;;;;27.40;6.65;;;11.80;99.90;;;;;;2075140;28;20048;-70
2022/12/24 03:18:52;;;;;;;28.70;6.70;;;11.80;99.90;;;;;;2076065;28;20033;-70
2022/12/24 03:19:54;;;;;;;28.40;6.85;;;11.80;99.90;;;;;;2074300;28;20033;-70
2022/12/24 03:21:05;;;;;;;25.77;6.90;;;11.80;99.90;;;;;;2075861;28;20081;-70
2022/12/24 03:22:09;;;;;;;26.35;6.45;;;11.80;99.90;;;;;;2073925;28;20026;-70
2022/12/24 03:23:11;;;;;;;29.30;6.88;;;11.80;99.90;;;;;;2073087;28;20112;-70
2022/12/24 03:24:11;;;;;;;24.10;5.82;;;11.80;99.90;;;;;;2074982;28;20525;-70
2022/12/24 03:25:12;;;;;;;34.70;6.78;;;11.80;99.90;;;;;;2072123;28;20366;-70
2022/12/24 03:26:14;;;;;;;31.35;7.40;;;11.80;99.90;;;;;;2073595;28;20026;-70
2022/12/24 03:27:16;;;;;;;35.78;6.93;;;11.80;99.90;;;;;;2075160;28;20629;-70
2022/12/24 03:28:18;;;;;;;34.65;7.30;;;11.80;99.90;;;;;;2072559;28;20029;-70
2022/12/24 03:29:19;;;;;;;27.88;6.15;;;11.80;99.90;;;;;;2074152;28;20018;-70
2022/12/24 03:30:20;;;;;;;30.27;7.10;;;11.80;99.90;;;;;;2074417;28;20108;-70
2022/12/24 03:31:20;;;;;;;25.90;5.72;;;11.80;99.90;;;;;;2073451;28;20029;-70
2022/12/24 03:32:27;;;;;;;28.13;6.35;;;11.80;99.90;;;;;;2074944;28;20030;-70
2022/12/24 03:33:28;;;;;;;24.27;6.22;;;11.80;99.90;;;;;;2072832;28;20021;-70
2022/12/24 03:34:29;;;;;;;29.30;6.22;;;11.80;99.90;;;;;;2074868;28;20018;-70
2022/12/24 03:35:30;;;;;;;32.85;7.22;;;11.80;99.90;;;;;;2072486;28;20032;-70
2022/12/24 03:36:30;;;;;;;31.17;6.80;;;11.80;99.90;;;;;;2074499;28;20021;-70
2022/12/24 03:37:31;;;;;;;34.67;7.38;;;11.80;99.90;;;;;;2073531;28;20058;-70
2022/12/24 03:38:32;;;;;;;30.17;7.25;;;11.80;99.90;;;;;;2075685;28;20029;-70
2022/12/24 03:39:32;;;;;;;30.00;6.03;;;11.80;99.90;;;;;;2075353;28;20658;-70
2022/12/24 03:40:33;;;;;;;36.88;6.22;;;11.80;99.90;;;;;;2073364;28;21549;-70
2022/12/24 03:41:34;;;;;;;28.67;6.60;;;11.80;99.90;;;;;;2074247;28;20025;-70
2022/12/24 03:42:35;;;;;;;29.55;7.10;;;11.80;99.90;;;;;;2074082;28;20505;-70
2022/12/24 03:43:35;;;;;;;29.60;7.10;;;11.80;99.90;;;;;;2074288;28;20136;-70
2022/12/24 03:44:36;;;;;;;27.98;6.10;;;11.80;99.90;;;;;;2074812;28;20136;-70
2022/12/24 03:45:36;;;;;;;26.08;6.53;;;11.80;99.90;;;;;;2074293;28;20111;-70
2022/12/24 03:46:37;;;;;;;32.33;7.63;;;11.80;99.90;;;;;;2074919;28;20025;-70
2022/12/24 03:47:37;;;;;;;33.35;7.45;;;11.80;99.90;;;;;;2073997;28;20021;-70
2022/12/24 03:48:38;;;;;;;34.33;7.97;;;11.80;99.90;;;;;;2074848;28;20029;-70
2022/12/24 03:49:38;;;;;;;26.85;6.70;;;11.80;99.90;;;;;;2073680;28;20044;-70
2022/12/24 03:50:39;;;;;;;30.55;8.15;;;11.80;99.90;;;;;;2075375;28;20225;-70
2022/12/24 03:51:39;;;;;;;30.35;6.93;;;11.80;99.90;;;;;;2075972;28;20021;-70
2022/12/24 03:52:40;;;;;;;27.83;6.80;;;11.80;99.90;;;;;;2073394;28;20030;-70
2022/12/24 03:53:40;;;;;;;32.42;6.90;;;11.80;99.90;;;;;;2073406;28;20054;-70
2022/12/24 03:54:41;;;;;;;25.85;7.18;;;11.80;99.90;;;;;;2075108;28;20029;-70
2022/12/24 03:55:41;;;;;;;32.58;7.22;;;11.80;99.90;;;;;;2075301;28;20771;-70
2022/12/24 03:56:42;;;;;;;30.00;6.18;;;11.80;99.90;;;;;;2074047;28;20108;-70
2022/12/24 03:57:42;;;;;;;27.17;6.93;;;11.80;99.90;;;;;;2073630;28;20028;-70
2022/12/24 03:58:43;;;;;;;27.75;7.28;;;11.80;99.90;;;;;;2075582;28;20461;-70
2022/12/24 03:59:44;;;;;;;25.15;6.30;;;11.80;99.90;;;;;;2074982;28;20091;-70
2022/12/24 04:00:44;;;;;;;31.02;6.75;;;11.80;99.90;;;;;;2073683;28;20025;-70
2022/12/24 04:01:45;;;;;;;29.52;6.72;;;11.80;99.90;;;;;;2075232;28;20100;-70
2022/12/24 04:02:45;;;;;;;31.33;7.78;;;11.80;99.90;;;;;;2074523;28;20638;-70
2022/12/24 04:03:46;;;;;;;29.40;6.68;;;11.80;99.90;;;;;;2073899;28;20070;-70
2022/12/24 04:04:46;;;;;;;27.02;6.72;;;11.90;99.90;;;;;;2074482;28;20026;-70
2022/12/24 04:05:47;;;;;;;27.92;5.97;;;11.80;99.90;;;;;;2074536;28;20020;-70
2022/12/24 04:06:48;;;;;;;28.08;7.72;;;11.90;99.90;;;;;;2071799;28;20033;-70
2022/12/24 04:07:48;;;;;;;28.92;7.10;;;11.80;99.90;;;;;;2073132;28;20485;-70
2022/12/24 04:08:49;;;;;;;34.90;7.60;;;11.80;99.90;;;;;;2073444;28;20022;-70
2022/12/24 04:09:49;;;;;;;34.13;7.32;;;11.80;99.90;;;;;;2074762;28;20581;-70
2022/12/24 04:10:50;;;;;;;31.58;6.40;;;11.80;99.90;;;;;;2075923;28;20035;-70
2022/12/24 04:11:50;;;;;;;32.03;6.70;;;11.80;99.90;;;;;;2075168;28;20028;-70
2022/12/24 04:12:51;;;;;;;31.00;7.65;;;11.90;99.90;;;;;;2074102;28;20533;-70
2022/12/24 04:13:51;;;;;;;32.10;6.15;;;11.90;99.90;;;;;;2071953;28;20022;-70
2022/12/24 04:14:52;;;;;;;27.90;6.28;;;11.90;99.90;;;;;;2072790;28;20033;-70
2022/12/24 04:16:01;;;;;;;29.83;5.97;;;11.90;99.90;;;;;;2075134;28;20030;-70
2022/12/24 04:17:02;;;;;;;25.33;6.15;;;11.90;99.90;;;;;;2073781;28;20113;-70
2022/12/24 04:18:02;;;;;;;25.27;5.00;;;11.90;99.90;;;;;;2073244;28;20029;-70
2022/12/24 04:19:03;;;;;;;24.55;5.70;;;11.90;99.90;;;;;;2074948;28;20037;-70
2022/12/24 04:20:04;;;;;;;27.88;7.43;;;11.90;99.90;;;;;;2073586;28;20041;-70
2022/12/24 04:21:06;;;;;;;27.80;5.90;;;11.90;99.90;;;;;;2073889;28;20378;-70
2022/12/24 04:22:06;;;;;;;31.30;7.40;;;11.90;99.90;;;;;;2074567;28;20036;-70
2022/12/24 04:23:07;;;;;;;30.52;6.60;;;11.90;99.90;;;;;;2074521;28;20490;-70
2022/12/24 04:24:07;;;;;;;25.77;5.65;;;11.90;99.90;;;;;;2076283;28;20481;-70
2022/12/24 04:25:08;;;;;;;24.98;5.55;;;11.90;99.90;;;;;;2071653;28;20040;-70
2022/12/24 04:26:11;;;;;;;28.33;5.78;;;11.90;99.90;;;;;;2076033;28;20033;-70
2022/12/24 04:27:16;;;;;;;29.38;5.78;;;11.90;99.90;;;;;;2074724;28;20033;-70
2022/12/24 04:28:17;;;;;;;29.67;7.22;;;11.90;99.90;;;;;;2073146;28;20428;-70
2022/12/24 04:29:17;;;;;;;25.95;5.70;;;11.90;99.90;;;;;;2077203;28;20032;-70
2022/12/24 04:30:18;;;;;;;31.30;6.38;;;11.90;99.90;;;;;;2075560;28;20073;-70
2022/12/24 04:31:18;;;;;;;20.55;5.50;;;11.90;99.90;;;;;;2073637;28;20030;-70
2022/12/24 04:32:19;;;;;;;26.85;6.35;;;11.90;99.90;;;;;;2073622;28;20414;-70
2022/12/24 04:33:19;;;;;;;23.25;5.38;;;11.90;99.90;;;;;;2072121;28;20033;-70
2022/12/24 04:34:20;;;;;;;33.58;6.22;;;11.90;99.90;;;;;;2072910;28;20048;-70
2022/12/24 04:35:21;;;;;;;28.08;5.85;;;11.90;99.90;;;;;;2072090;28;20037;-70
2022/12/24 04:36:21;;;;;;;25.60;5.63;;;11.90;99.90;;;;;;2074148;28;20030;-71
2022/12/24 04:37:22;;;;;;;28.05;5.95;;;11.90;99.90;;;;;;2074805;28;20029;-70
2022/12/24 04:38:22;;;;;;;28.90;6.57;;;11.90;99.90;;;;;;2074138;28;20026;-70
2022/12/24 04:39:23;;;;;;;23.85;5.55;;;11.90;99.90;;;;;;2074740;28;20140;-70
2022/12/24 04:40:24;;;;;;;24.10;5.88;;;11.90;99.90;;;;;;2073226;28;20104;-70
2022/12/24 04:41:24;;;;;;;30.92;6.15;;;11.90;99.90;;;;;;2074845;28;20021;-70
2022/12/24 04:42:25;;;;;;;24.38;5.63;;;11.80;99.90;;;;;;2073288;28;20030;-70
2022/12/24 04:43:28;;;;;;;27.17;5.15;;;11.80;99.90;;;;;;2074751;28;20049;-70
2022/12/24 04:44:28;;;;;;;25.05;6.35;;;11.80;99.90;;;;;;2074356;28;20648;-70
2022/12/24 04:45:30;;;;;;;25.08;6.15;;;11.80;99.90;;;;;;2073068;28;20375;-70
2022/12/24 04:46:30;;;;;;;28.88;6.15;;;11.80;99.90;;;;;;2073739;28;20569;-70
2022/12/24 04:47:31;;;;;;;25.92;5.53;;;11.80;99.90;;;;;;2072196;28;22142;-70
2022/12/24 04:48:32;;;;;;;22.35;5.30;;;11.80;99.90;;;;;;2075802;28;20402;-70
2022/12/24 04:49:32;;;;;;;32.42;6.90;;;11.80;99.90;;;;;;2073154;28;20022;-70
2022/12/24 04:50:33;;;;;;;24.27;5.10;;;11.80;99.90;;;;;;2075499;28;20028;-70
2022/12/24 04:51:33;;;;;;;26.65;6.75;;;11.80;99.90;;;;;;2072644;28;20063;-70
2022/12/24 04:52:34;;;;;;;21.90;5.63;;;11.80;99.90;;;;;;2074479;28;20122;-70
2022/12/24 04:53:35;;;;;;;25.80;5.97;;;11.80;99.90;;;;;;2073904;28;20034;-70
2022/12/24 04:54:36;;;;;;;25.73;5.90;;;11.80;99.90;;;;;;2073844;28;20083;-70
2022/12/24 04:55:37;;;;;;;25.33;7.40;;;11.80;99.90;;;;;;2073252;28;21050;-70
2022/12/24 04:56:37;;;;;;;24.40;5.75;;;11.80;99.90;;;;;;2075246;28;20105;-70
2022/12/24 04:57:38;;;;;;;30.23;7.40;;;11.80;99.90;;;;;;2072603;28;20948;-70
2022/12/24 04:58:39;;;;;;;27.80;5.75;;;11.90;99.90;;;;;;2072409;28;20026;-70
2022/12/24 04:59:39;;;;;;;27.63;6.72;;;11.90;99.90;;;;;;2073881;28;20029;-70
2022/12/24 05:00:40;;;;;;;20.27;5.15;;;11.80;99.90;;;;;;2074124;28;20079;-70
2022/12/24 05:01:41;;;;;;;23.27;5.03;;;11.90;99.90;;;;;;2073597;28;20057;-70
2022/12/24 05:02:41;;;;;;;22.05;5.15;;;11.90;99.90;;;;;;2072881;28;20029;-70
2022/12/24 05:03:42;;;;;;;21.90;5.63;;;11.90;99.90;;;;;;2071540;28;20029;-70
2022/12/24 05:04:43;;;;;;;24.75;4.88;;;11.90;99.90;;;;;;2072257;28;20026;-70
2022/12/24 05:05:44;;;;;;;22.98;5.57;;;11.90;99.90;;;;;;2071939;28;20033;-70
2022/12/24 05:06:44;;;;;;;23.15;6.30;;;11.90;99.90;;;;;;2071298;28;20030;-70
2022/12/24 05:07:45;;;;;;;18.80;5.15;;;11.90;99.90;;;;;;2073143;28;20041;-70
2022/12/24 05:08:45;;;;;;;20.73;6.50;;;11.90;99.90;;;;;;2073006;28;20113;-70
2022/12/24 05:09:46;;;;;;;25.60;6.47;;;11.90;99.90;;;;;;2077013;28;20477;-70
2022/12/24 05:10:55;;;;;;;24.30;6.22;;;11.90;99.90;;;;;;2077694;28;20021;-70
2022/12/24 05:11:55;;;;;;;22.80;5.32;;;11.90;99.90;;;;;;2073101;28;20405;-70
2022/12/24 05:12:56;;;;;;;18.50;4.75;;;11.90;99.90;;;;;;2073767;28;20025;-70
2022/12/24 05:13:56;;;;;;;28.85;6.30;;;11.90;99.90;;;;;;2074224;28;20033;-71
2022/12/24 05:14:57;;;;;;;27.25;5.85;;;11.90;99.90;;;;;;2072231;28;20469;-70
2022/12/24 05:15:58;;;;;;;19.65;5.38;;;11.90;99.90;;;;;;2074159;28;20033;-70
2022/12/24 05:16:58;;;;;;;20.02;5.18;;;11.90;99.90;;;;;;2074174;28;20367;-70
2022/12/24 05:17:59;;;;;;;22.95;5.28;;;11.90;99.90;;;;;;2073420;28;20448;-70
2022/12/24 05:18:59;;;;;;;20.63;4.95;;;11.90;99.90;;;;;;2074416;28;20034;-70
2022/12/24 05:20:00;;;;;;;21.60;5.68;;;11.90;99.90;;;;;;2074015;28;20022;-70
2022/12/24 05:21:00;;;;;;;20.88;4.93;;;11.90;99.90;;;;;;2067199;28;20027;-70
2022/12/24 05:26:24;;;;;;;19.63;5.30;;;11.80;99.90;;;;;;2073199;28;20037;-70
2022/12/24 05:27:24;;;;;;;17.67;5.28;;;11.80;99.90;;;;;;2072290;28;20030;-70
2022/12/24 05:28:25;;;;;;;21.10;5.13;;;11.80;99.90;;;;;;2072818;28;20030;-70
2022/12/24 05:29:26;;;;;;;16.63;5.15;;;11.80;99.90;;;;;;2067240;28;20080;-70
2022/12/24 05:30:26;;;;;;;20.88;5.30;;;11.80;99.90;;;;;;2074857;28;20045;-70
2022/12/24 05:31:29;;;;;;;22.60;5.78;;;11.80;99.90;;;;;;2074238;28;20032;-70
2022/12/24 05:32:30;;;;;;;17.98;5.38;;;11.80;99.90;;;;;;2072571;28;20036;-70
2022/12/24 05:33:30;;;;;;;17.05;5.10;;;11.80;99.90;;;;;;2073380;28;20053;-70
2022/12/24 05:34:31;;;;;;;20.83;6.43;;;11.80;99.90;;;;;;2073266;28;20493;-70